Time;durP1;ratioP1;P1;durP2;ratioP2;P2;SDS_P1;SDS_P2;PMS_P1;PMS_P2;Temp;Humidity;BMP_temperature;BMP_pressure;BME280_temperature;BME280_humidity;BME280_pressure;Samples;Min_cycle;Max_cycle;Signal;HPM_P1;HPM_P2
2023/06/04 00:01:40;;;;;;;2.28;1.58;;;24.30;45.10;;;;;;5032111;28;20584;-64
2023/06/04 00:04:05;;;;;;;3.00;1.95;;;24.30;45.10;;;;;;5033266;28;20067;-64
2023/06/04 00:06:31;;;;;;;2.50;2.00;;;24.30;45.10;;;;;;5034841;28;20029;-64
2023/06/04 00:08:56;;;;;;;2.53;1.70;;;24.20;45.00;;;;;;5029147;28;20456;-64
2023/06/04 00:11:22;;;;;;;2.20;1.60;;;24.20;45.60;;;;;;5034367;28;20032;-64
2023/06/04 00:13:48;;;;;;;2.40;1.65;;;24.30;45.60;;;;;;5034338;28;20646;-64
2023/06/04 00:16:14;;;;;;;2.70;1.80;;;24.20;45.00;;;;;;5023327;28;20057;-64
2023/06/04 00:18:40;;;;;;;2.10;1.60;;;24.20;45.00;;;;;;5036117;28;20025;-64
2023/06/04 00:21:05;;;;;;;2.15;1.50;;;24.20;45.00;;;;;;5038503;28;20025;-64
2023/06/04 00:23:31;;;;;;;2.42;1.70;;;24.20;45.00;;;;;;5040324;28;20040;-64
2023/06/04 00:25:56;;;;;;;2.28;1.70;;;24.20;45.10;;;;;;5038217;28;20065;-64
2023/06/04 00:28:22;;;;;;;2.38;1.65;;;24.20;45.00;;;;;;5036449;28;20436;-64
2023/06/04 00:30:48;;;;;;;2.63;1.60;;;24.20;45.10;;;;;;5034991;28;20105;-64
2023/06/04 00:33:13;;;;;;;2.33;1.70;;;24.20;45.00;;;;;;5034146;28;20021;-64
2023/06/04 00:35:39;;;;;;;2.40;1.70;;;24.20;45.10;;;;;;5038297;28;20108;-64
2023/06/04 00:38:05;;;;;;;2.38;1.70;;;24.20;45.00;;;;;;5021560;28;20022;-64
2023/06/04 00:40:30;;;;;;;2.55;1.85;;;24.20;45.00;;;;;;5037498;28;20370;-64
2023/06/04 00:42:57;;;;;;;2.10;1.60;;;24.20;45.00;;;;;;5038289;28;20075;-64
2023/06/04 00:45:25;;;;;;;2.50;1.70;;;24.20;45.00;;;;;;5033575;28;20424;-64
2023/06/04 00:47:51;;;;;;;2.30;1.60;;;24.20;45.00;;;;;;5016485;28;20025;-64
2023/06/04 00:50:18;;;;;;;2.15;1.45;;;24.20;45.00;;;;;;5033416;28;20056;-64
2023/06/04 00:52:43;;;;;;;2.38;1.70;;;24.20;45.00;;;;;;5037095;28;20391;-64
2023/06/04 00:55:10;;;;;;;2.20;1.50;;;24.20;45.00;;;;;;5018581;28;20021;-64
2023/06/04 00:57:37;;;;;;;2.45;1.70;;;24.20;45.00;;;;;;5001586;28;20022;-64
2023/06/04 01:00:05;;;;;;;2.58;1.67;;;24.20;45.10;;;;;;5004272;28;20037;-64
2023/06/04 01:02:33;;;;;;;2.20;1.70;;;24.20;45.10;;;;;;5020087;28;20110;-64
2023/06/04 01:05:08;;;;;;;2.65;1.60;;;24.20;45.10;;;;;;5036925;28;20063;-64
2023/06/04 01:07:36;;;;;;;2.40;1.70;;;24.20;45.00;;;;;;5039409;28;20037;-64
2023/06/04 01:10:02;;;;;;;2.33;1.70;;;24.20;45.10;;;;;;5038522;28;20028;-64
2023/06/04 01:12:28;;;;;;;2.38;1.70;;;24.20;45.10;;;;;;5033540;28;20017;-64
2023/06/04 01:14:53;;;;;;;2.38;1.65;;;24.20;45.10;;;;;;5037561;28;20493;-64
2023/06/04 01:17:37;;;;;;;2.35;1.65;;;24.20;45.10;;;;;;5036750;28;20086;-64
2023/06/04 01:20:25;;;;;;;2.05;1.50;;;24.20;45.10;;;;;;5038099;28;20030;-64
2023/06/04 01:22:59;;;;;;;2.38;1.60;;;24.10;45.00;;;;;;5037049;28;20543;-64
2023/06/04 01:25:41;;;;;;;2.40;1.80;;;24.10;45.00;;;;;;5035835;28;20090;-64
2023/06/04 01:28:13;;;;;;;2.30;1.65;;;24.10;45.00;;;;;;5019235;28;20021;-64
2023/06/04 01:30:45;;;;;;;2.05;1.60;;;24.10;45.00;;;;;;5004814;28;20440;-64
2023/06/04 01:33:12;;;;;;;2.38;1.60;;;24.10;45.00;;;;;;5036264;28;20033;-64
2023/06/04 01:35:38;;;;;;;2.30;1.60;;;24.10;45.00;;;;;;5036940;28;20510;-64
2023/06/04 01:38:05;;;;;;;2.08;1.60;;;24.10;45.10;;;;;;5037725;28;20025;-64
2023/06/04 01:40:31;;;;;;;2.10;1.60;;;24.10;45.10;;;;;;5032691;28;20481;-64
2023/06/04 01:42:57;;;;;;;2.20;1.60;;;24.10;45.10;;;;;;5017100;28;20032;-64
2023/06/04 01:45:23;;;;;;;2.30;1.77;;;24.10;45.10;;;;;;5019479;28;20090;-64
2023/06/04 01:47:49;;;;;;;2.03;1.52;;;24.10;45.10;;;;;;5022922;28;20616;-64
2023/06/04 01:50:15;;;;;;;2.03;1.48;;;24.10;45.10;;;;;;5037498;28;20544;-64
2023/06/04 01:52:41;;;;;;;2.20;1.50;;;24.10;45.10;;;;;;5035843;28;20028;-64
2023/06/04 01:55:08;;;;;;;2.15;1.60;;;24.10;45.10;;;;;;5033099;28;20053;-64
2023/06/04 01:57:38;;;;;;;2.20;1.60;;;24.10;45.10;;;;;;5032112;28;20108;-64
2023/06/04 02:00:07;;;;;;;2.00;1.52;;;24.10;45.10;;;;;;5035432;28;20057;-64
2023/06/04 02:02:33;;;;;;;1.88;1.30;;;24.10;45.10;;;;;;5020354;28;20079;-64
2023/06/04 02:04:59;;;;;;;1.70;1.40;;;24.10;45.10;;;;;;5037203;28;20025;-64
2023/06/04 02:07:25;;;;;;;2.33;1.60;;;24.10;45.10;;;;;;5037639;28;20472;-64
2023/06/04 02:09:51;;;;;;;1.75;1.38;;;24.10;45.10;;;;;;5034545;28;20017;-64
2023/06/04 02:12:17;;;;;;;2.25;1.50;;;24.10;45.10;;;;;;5033331;28;20163;-64
2023/06/04 02:14:45;;;;;;;2.20;1.50;;;24.00;45.10;;;;;;5019184;28;20021;-64
2023/06/04 02:17:15;;;;;;;2.10;1.60;;;24.10;45.20;;;;;;5032374;28;20027;-64
2023/06/04 02:19:45;;;;;;;2.60;1.70;;;24.00;45.10;;;;;;5035932;28;20035;-64
2023/06/04 02:22:14;;;;;;;2.28;1.50;;;24.10;45.10;;;;;;5033507;28;20025;-64
2023/06/04 02:24:42;;;;;;;2.00;1.50;;;24.10;45.10;;;;;;5016065;28;20119;-64
2023/06/04 02:27:08;;;;;;;2.30;1.67;;;24.00;45.10;;;;;;5032740;28;20025;-64
2023/06/04 02:29:34;;;;;;;2.28;1.50;;;24.00;45.10;;;;;;5034938;28;20408;-64
2023/06/04 02:32:00;;;;;;;2.40;1.65;;;24.00;45.10;;;;;;5033997;28;20025;-64
2023/06/04 02:34:26;;;;;;;2.28;1.60;;;24.00;45.10;;;;;;5033332;28;20026;-64
2023/06/04 02:36:51;;;;;;;2.10;1.60;;;24.00;45.10;;;;;;5035891;28;20401;-64
2023/06/04 02:39:19;;;;;;;2.17;1.40;;;24.00;45.10;;;;;;5032721;28;20032;-64
2023/06/04 02:41:44;;;;;;;1.88;1.42;;;24.00;45.10;;;;;;5035180;28;20022;-64
2023/06/04 02:44:10;;;;;;;2.05;1.40;;;24.00;45.10;;;;;;5032688;28;20021;-64
2023/06/04 02:46:37;;;;;;;2.38;1.50;;;24.00;45.10;;;;;;5020631;28;20025;-64
2023/06/04 02:49:03;;;;;;;2.15;1.42;;;24.00;45.10;;;;;;5033488;28;20733;-64
2023/06/04 02:51:28;;;;;;;1.90;1.40;;;24.00;45.10;;;;;;5032586;28;20025;-64
2023/06/04 02:53:54;;;;;;;1.90;1.33;;;24.00;45.10;;;;;;5033794;28;20107;-64
2023/06/04 02:56:20;;;;;;;1.83;1.40;;;24.00;45.10;;;;;;5034957;28;20080;-64
2023/06/04 02:58:53;;;;;;;2.00;1.40;;;24.00;45.10;;;;;;5034971;28;20033;-64
2023/06/04 03:01:23;;;;;;;1.80;1.30;;;24.00;45.10;;;;;;5031112;28;20088;-64
2023/06/04 03:03:49;;;;;;;2.28;1.50;;;24.00;45.10;;;;;;5035691;28;20079;-64
2023/06/04 03:06:16;;;;;;;1.92;1.38;;;24.00;45.10;;;;;;5034969;28;20461;-64
2023/06/04 03:08:42;;;;;;;1.95;1.40;;;24.00;45.10;;;;;;5035460;28;20422;-64
2023/06/04 03:11:08;;;;;;;1.85;1.27;;;24.00;45.10;;;;;;5030937;28;20021;-64
2023/06/04 03:13:34;;;;;;;2.00;1.50;;;23.90;45.10;;;;;;5032335;28;20072;-64
2023/06/04 03:16:02;;;;;;;2.13;1.50;;;23.90;45.10;;;;;;5035198;28;20473;-64
2023/06/04 03:18:28;;;;;;;1.70;1.35;;;23.90;45.10;;;;;;5035993;28;20032;-64
2023/06/04 03:20:54;;;;;;;2.05;1.58;;;24.00;45.10;;;;;;5034476;28;20025;-64
2023/06/04 03:23:21;;;;;;;2.70;1.60;;;23.90;45.10;;;;;;5016550;28;20035;-64
2023/06/04 03:25:47;;;;;;;1.98;1.52;;;23.90;45.10;;;;;;5032872;28;20108;-64
2023/06/04 03:28:13;;;;;;;1.60;1.30;;;23.90;45.10;;;;;;5033170;28;20022;-64
2023/06/04 03:30:42;;;;;;;2.15;1.60;;;23.90;45.10;;;;;;5036630;28;20043;-64
2023/06/04 03:33:07;;;;;;;1.58;1.30;;;23.90;45.10;;;;;;5032471;28;20026;-64
2023/06/04 03:35:33;;;;;;;1.88;1.30;;;23.90;45.10;;;;;;5030813;28;20116;-64
2023/06/04 03:37:59;;;;;;;2.08;1.60;;;23.90;45.10;;;;;;5002720;28;20029;-64
2023/06/04 03:40:25;;;;;;;2.30;1.63;;;23.90;45.10;;;;;;5034196;28;20033;-64
2023/06/04 03:42:51;;;;;;;2.60;1.50;;;23.90;45.10;;;;;;5032988;28;20057;-64
2023/06/04 03:45:16;;;;;;;1.50;1.20;;;23.90;45.10;;;;;;5015744;28;20049;-64
2023/06/04 03:47:42;;;;;;;1.98;1.40;;;23.90;45.10;;;;;;5039337;28;20167;-64
2023/06/04 03:50:08;;;;;;;1.75;1.30;;;23.90;45.20;;;;;;5023469;28;20108;-64
2023/06/04 03:52:33;;;;;;;1.42;1.20;;;23.90;45.10;;;;;;5040296;28;20172;-64
2023/06/04 03:55:00;;;;;;;1.98;1.40;;;23.90;45.20;;;;;;5035618;28;20041;-64
2023/06/04 03:57:25;;;;;;;1.60;1.30;;;23.90;45.20;;;;;;5021406;28;20036;-64
2023/06/04 03:59:51;;;;;;;1.77;1.38;;;23.90;45.20;;;;;;5035683;28;20029;-64
2023/06/04 04:02:18;;;;;;;1.55;1.30;;;23.90;45.20;;;;;;5039756;28;20433;-64
2023/06/04 04:04:44;;;;;;;2.20;1.50;;;23.90;45.20;;;;;;5037684;28;20104;-64
2023/06/04 04:07:10;;;;;;;2.40;1.40;;;23.90;45.70;;;;;;5033406;28;20079;-64
2023/06/04 04:09:36;;;;;;;2.10;1.60;;;23.80;45.10;;;;;;5037704;28;20022;-64
2023/06/04 04:12:03;;;;;;;1.80;1.23;;;23.80;45.10;;;;;;5023300;28;20566;-64
2023/06/04 04:14:28;;;;;;;1.95;1.42;;;23.80;45.10;;;;;;5038214;28;20063;-64
2023/06/04 04:16:54;;;;;;;2.15;1.50;;;23.90;45.20;;;;;;5006913;28;20028;-64
2023/06/04 04:19:20;;;;;;;1.80;1.23;;;23.80;45.20;;;;;;5039734;28;20040;-64
2023/06/04 04:21:48;;;;;;;1.85;1.15;;;23.80;45.20;;;;;;5036800;28;20022;-64
2023/06/04 04:24:26;;;;;;;1.92;1.40;;;23.80;45.20;;;;;;5033901;28;20024;-64
2023/06/04 04:26:54;;;;;;;1.88;1.38;;;23.80;45.20;;;;;;5037965;28;20504;-64
2023/06/04 04:29:27;;;;;;;1.75;1.20;;;23.80;45.20;;;;;;5039804;28;20018;-64
2023/06/04 04:31:57;;;;;;;1.80;1.40;;;23.80;45.20;;;;;;5037537;28;20078;-64
2023/06/04 04:34:25;;;;;;;1.42;1.13;;;23.80;45.20;;;;;;5036195;28;20491;-64
2023/06/04 04:36:56;;;;;;;1.70;1.30;;;23.80;45.20;;;;;;5017185;28;20113;-64
2023/06/04 04:39:25;;;;;;;1.85;1.30;;;23.80;45.20;;;;;;5035480;28;20029;-64
2023/06/04 04:41:51;;;;;;;2.50;1.80;;;23.80;45.20;;;;;;5017940;28;20112;-64
2023/06/04 04:44:17;;;;;;;1.70;1.27;;;23.80;45.20;;;;;;5035886;28;20082;-64
2023/06/04 04:46:43;;;;;;;1.70;1.30;;;23.80;45.20;;;;;;5038750;28;20033;-64
2023/06/04 04:49:08;;;;;;;1.85;1.20;;;23.80;45.20;;;;;;5036190;28;20057;-64
2023/06/04 04:51:34;;;;;;;2.08;1.40;;;23.80;45.20;;;;;;5034781;28;20450;-64
2023/06/04 04:54:00;;;;;;;1.70;1.27;;;23.80;45.20;;;;;;5037345;28;20029;-64
2023/06/04 04:56:26;;;;;;;2.08;1.38;;;23.80;45.20;;;;;;5020705;28;20028;-64
2023/06/04 04:58:52;;;;;;;1.98;1.27;;;23.80;45.20;;;;;;5019677;28;20485;-64
2023/06/04 05:01:18;;;;;;;2.03;1.40;;;23.80;45.20;;;;;;5035088;28;20378;-65
2023/06/04 05:03:44;;;;;;;1.75;1.30;;;23.80;45.30;;;;;;5037101;28;20037;-64
2023/06/04 05:06:10;;;;;;;2.00;1.30;;;23.80;45.20;;;;;;5034758;28;20031;-64
2023/06/04 05:08:35;;;;;;;1.67;1.20;;;23.70;45.20;;;;;;5036558;28;20025;-64
2023/06/04 05:11:01;;;;;;;1.88;1.30;;;23.70;45.20;;;;;;5036107;28;20440;-64
2023/06/04 05:13:27;;;;;;;1.77;1.30;;;23.70;45.20;;;;;;5039379;28;20566;-64
2023/06/04 05:15:52;;;;;;;1.60;1.13;;;23.80;45.20;;;;;;5039787;28;20598;-64
2023/06/04 05:18:21;;;;;;;1.88;1.38;;;23.70;45.20;;;;;;5037729;28;20461;-64
2023/06/04 05:20:47;;;;;;;1.83;1.27;;;23.70;45.20;;;;;;5034003;28;20090;-64
2023/06/04 05:23:13;;;;;;;1.80;1.27;;;23.70;45.20;;;;;;5021578;28;20041;-64
2023/06/04 05:25:40;;;;;;;1.83;1.20;;;23.70;45.20;;;;;;5037444;28;20503;-64
2023/06/04 05:28:06;;;;;;;1.70;1.30;;;23.70;45.20;;;;;;5035047;28;20056;-64
2023/06/04 05:30:33;;;;;;;1.65;1.25;;;23.70;45.20;;;;;;5015043;28;20156;-64
2023/06/04 05:32:59;;;;;;;1.83;1.30;;;23.70;45.20;;;;;;5038076;28;20117;-64
2023/06/04 05:35:25;;;;;;;1.63;1.30;;;23.70;45.20;;;;;;5019152;28;20493;-64
2023/06/04 05:37:53;;;;;;;1.95;1.40;;;23.70;45.20;;;;;;5020942;28;20041;-64
2023/06/04 05:40:21;;;;;;;1.75;1.27;;;23.70;45.20;;;;;;5031925;28;20371;-64
2023/06/04 05:42:47;;;;;;;1.70;1.10;;;23.70;45.20;;;;;;5034218;28;20449;-64
2023/06/04 05:45:13;;;;;;;1.90;1.20;;;23.70;45.20;;;;;;5032750;28;20104;-64
2023/06/04 05:47:38;;;;;;;1.63;1.10;;;23.70;45.20;;;;;;5035475;28;20108;-64
2023/06/04 05:50:05;;;;;;;1.52;1.13;;;23.70;45.30;;;;;;5034826;28;20484;-64
2023/06/04 05:52:33;;;;;;;2.35;1.50;;;23.70;45.20;;;;;;5033990;28;20025;-64
2023/06/04 05:54:58;;;;;;;1.80;1.35;;;23.70;45.30;;;;;;5037326;28;20022;-64
2023/06/04 05:57:24;;;;;;;2.03;1.42;;;23.70;45.20;;;;;;5036968;28;20028;-64
2023/06/04 05:59:50;;;;;;;1.55;1.15;;;23.70;45.20;;;;;;5033439;28;20715;-64
2023/06/04 06:02:16;;;;;;;1.40;1.10;;;23.70;45.20;;;;;;5034847;28;20113;-64
2023/06/04 06:04:41;;;;;;;1.55;1.20;;;23.70;45.30;;;;;;5031004;28;20378;-64
2023/06/04 06:07:07;;;;;;;1.40;1.17;;;23.70;45.30;;;;;;5033433;28;20388;-64
2023/06/04 06:09:33;;;;;;;1.70;1.20;;;23.70;45.20;;;;;;5019114;28;20033;-64
2023/06/04 06:11:59;;;;;;;1.73;1.20;;;23.70;45.80;;;;;;5036311;28;20160;-64
2023/06/04 06:14:25;;;;;;;2.13;1.30;;;23.70;45.20;;;;;;5032796;28;20444;-63
2023/06/04 06:16:51;;;;;;;1.55;1.20;;;23.70;45.20;;;;;;5031084;28;20109;-64
2023/06/04 06:19:16;;;;;;;2.28;1.20;;;23.70;45.20;;;;;;5019095;28;20473;-64
2023/06/04 06:21:42;;;;;;;1.55;1.13;;;23.70;45.70;;;;;;5017884;28;20024;-64
2023/06/04 06:24:08;;;;;;;1.45;1.08;;;23.60;45.10;;;;;;5034884;28;20029;-63
2023/06/04 06:26:34;;;;;;;1.75;1.20;;;23.60;45.10;;;;;;5037337;28;20055;-64
2023/06/04 06:28:59;;;;;;;2.13;1.40;;;23.60;45.10;;;;;;5032788;28;20119;-64
2023/06/04 06:31:25;;;;;;;2.00;1.20;;;23.60;45.10;;;;;;5030683;28;20036;-64
2023/06/04 06:33:51;;;;;;;1.80;1.15;;;23.60;45.10;;;;;;5036189;28;20120;-64
2023/06/04 06:36:18;;;;;;;1.63;1.15;;;23.60;45.10;;;;;;5018508;28;20568;-64
2023/06/04 06:38:44;;;;;;;1.83;1.20;;;23.60;45.10;;;;;;5034768;28;20331;-64
2023/06/04 06:41:10;;;;;;;1.77;1.20;;;23.60;45.10;;;;;;5019738;28;20032;-64
2023/06/04 06:43:36;;;;;;;2.05;1.33;;;23.60;45.10;;;;;;5033682;28;20033;-64
2023/06/04 06:46:02;;;;;;;2.20;1.40;;;23.60;45.00;;;;;;5032233;28;20063;-64
2023/06/04 06:48:27;;;;;;;1.73;1.23;;;23.60;45.00;;;;;;5033723;28;20381;-64
2023/06/04 06:50:54;;;;;;;1.92;1.20;;;23.60;45.00;;;;;;5034459;28;20498;-64
2023/06/04 06:53:19;;;;;;;2.05;1.30;;;23.60;44.90;;;;;;5033177;28;20485;-64
2023/06/04 06:55:45;;;;;;;1.98;1.30;;;23.60;44.90;;;;;;5033072;28;20103;-64
2023/06/04 06:58:11;;;;;;;1.88;1.30;;;23.60;44.90;;;;;;5034704;28;20034;-64
2023/06/04 07:00:36;;;;;;;1.70;1.10;;;23.60;44.80;;;;;;5032627;28;20022;-64
2023/06/04 07:03:03;;;;;;;1.58;1.20;;;23.60;44.80;;;;;;5039154;28;20033;-64
2023/06/04 07:05:30;;;;;;;1.60;1.17;;;23.60;44.80;;;;;;5032490;28;20426;-64
2023/06/04 07:07:57;;;;;;;1.40;1.10;;;23.60;44.80;;;;;;5034663;28;20478;-64
2023/06/04 07:10:22;;;;;;;2.50;1.30;;;23.60;44.80;;;;;;5034981;28;20066;-64
2023/06/04 07:12:48;;;;;;;1.80;1.10;;;23.60;44.80;;;;;;5034131;28;20026;-64
2023/06/04 07:15:14;;;;;;;1.60;1.20;;;23.60;44.80;;;;;;5033616;28;20104;-64
2023/06/04 07:17:40;;;;;;;1.77;1.20;;;23.60;44.70;;;;;;5033290;28;20029;-64
2023/06/04 07:20:07;;;;;;;1.50;1.10;;;23.60;44.70;;;;;;5014925;28;20095;-64
2023/06/04 07:22:34;;;;;;;1.70;1.25;;;23.60;44.70;;;;;;5017968;28;20065;-64
2023/06/04 07:24:59;;;;;;;1.70;1.20;;;23.60;44.70;;;;;;5040138;28;20068;-64
2023/06/04 07:27:26;;;;;;;1.48;1.17;;;23.60;45.20;;;;;;5037159;28;20377;-64
2023/06/04 07:29:52;;;;;;;1.88;1.30;;;23.60;44.60;;;;;;5022269;28;20727;-64
2023/06/04 07:32:18;;;;;;;1.92;1.40;;;23.60;44.60;;;;;;5036979;28;20021;-64
2023/06/04 07:34:43;;;;;;;1.60;1.20;;;23.50;44.50;;;;;;5034263;28;20026;-64
2023/06/04 07:37:09;;;;;;;1.40;1.10;;;23.60;44.60;;;;;;5036024;28;20037;-64
2023/06/04 07:39:35;;;;;;;1.88;1.20;;;23.50;44.50;;;;;;5038561;28;20104;-64
2023/06/04 07:42:01;;;;;;;1.90;1.20;;;23.50;44.50;;;;;;5037288;28;20033;-64
2023/06/04 07:44:26;;;;;;;1.75;1.20;;;23.50;44.60;;;;;;5039034;28;20033;-64
2023/06/04 07:46:52;;;;;;;1.80;1.20;;;23.50;44.60;;;;;;5036488;28;20568;-64
2023/06/04 07:49:18;;;;;;;1.58;1.08;;;23.50;44.60;;;;;;5035099;28;20102;-64
2023/06/04 07:51:43;;;;;;;1.80;1.10;;;23.50;44.50;;;;;;5037304;28;20030;-64
2023/06/04 07:54:10;;;;;;;1.65;1.20;;;23.50;44.60;;;;;;5038675;28;20032;-64
2023/06/04 07:56:35;;;;;;;1.90;1.20;;;23.50;44.50;;;;;;5039804;28;20488;-64
2023/06/04 07:59:01;;;;;;;1.98;1.27;;;23.50;45.10;;;;;;5039771;28;20124;-64
2023/06/04 08:01:27;;;;;;;2.00;1.30;;;23.50;44.60;;;;;;5033886;28;20111;-65
2023/06/04 08:03:53;;;;;;;1.90;1.30;;;23.50;44.60;;;;;;5036568;28;20461;-64
2023/06/04 08:06:18;;;;;;;2.05;1.23;;;23.50;44.60;;;;;;5037781;28;20075;-64
2023/06/04 08:08:45;;;;;;;1.70;1.20;;;23.50;44.60;;;;;;5036411;28;20030;-64
2023/06/04 08:11:12;;;;;;;1.80;1.23;;;23.50;44.60;;;;;;5038490;28;20021;-64
2023/06/04 08:13:39;;;;;;;1.70;1.27;;;23.50;44.60;;;;;;5036553;28;20495;-63
2023/06/04 08:16:04;;;;;;;2.15;1.27;;;23.50;44.60;;;;;;5037945;28;20499;-64
2023/06/04 08:18:30;;;;;;;1.50;1.10;;;23.50;44.50;;;;;;5033070;28;20026;-64
2023/06/04 08:20:56;;;;;;;1.55;1.10;;;23.50;44.50;;;;;;5037162;28;20358;-64
2023/06/04 08:23:21;;;;;;;1.88;1.20;;;23.50;44.50;;;;;;5038575;28;20032;-64
2023/06/04 08:25:47;;;;;;;1.80;1.30;;;23.50;44.50;;;;;;5041657;28;20468;-64
2023/06/04 08:28:16;;;;;;;1.58;1.20;;;23.50;44.50;;;;;;5037976;28;20029;-64
2023/06/04 08:30:42;;;;;;;1.38;1.10;;;23.50;44.50;;;;;;5033651;28;20033;-64
2023/06/04 08:33:08;;;;;;;1.35;1.10;;;23.50;44.50;;;;;;5018499;28;20558;-64
2023/06/04 08:35:34;;;;;;;1.75;1.15;;;23.50;44.50;;;;;;5035529;28;20034;-64
2023/06/04 08:37:59;;;;;;;1.67;1.20;;;23.50;44.50;;;;;;5036279;28;20114;-65
2023/06/04 08:40:25;;;;;;;1.40;1.00;;;23.50;44.50;;;;;;5038175;28;20025;-64
2023/06/04 08:42:57;;;;;;;1.58;1.10;;;23.50;44.50;;;;;;5036511;28;20111;-64
2023/06/04 08:45:23;;;;;;;1.58;1.10;;;23.50;44.50;;;;;;5035570;28;20041;-64
2023/06/04 08:47:51;;;;;;;2.00;1.15;;;23.50;44.50;;;;;;5039291;28;20021;-64
2023/06/04 08:50:24;;;;;;;1.48;1.10;;;23.50;44.60;;;;;;5037979;28;20079;-64
2023/06/04 08:52:58;;;;;;;1.33;1.00;;;23.50;44.60;;;;;;5040179;28;20154;-64
2023/06/04 08:55:24;;;;;;;1.60;1.10;;;23.50;44.60;;;;;;5035800;28;20101;-64
2023/06/04 08:57:51;;;;;;;1.60;1.20;;;23.50;44.60;;;;;;5035823;28;20037;-63
2023/06/04 09:00:18;;;;;;;1.55;1.02;;;23.50;44.60;;;;;;5039218;28;20103;-64
2023/06/04 09:02:44;;;;;;;1.50;1.10;;;23.50;44.70;;;;;;5038364;28;20018;-64
2023/06/04 09:05:18;;;;;;;1.70;1.08;;;23.50;44.70;;;;;;5034289;28;20022;-64
2023/06/04 09:07:46;;;;;;;1.17;1.00;;;23.50;44.70;;;;;;5034266;28;20025;-64
2023/06/04 09:10:15;;;;;;;1.85;0.93;;;23.50;44.70;;;;;;5042137;28;20029;-64
2023/06/04 09:12:44;;;;;;;1.55;1.10;;;23.50;45.20;;;;;;5033688;28;20052;-64
2023/06/04 09:15:11;;;;;;;1.63;1.00;;;23.50;44.70;;;;;;5019960;28;20124;-64
2023/06/04 09:17:36;;;;;;;1.80;1.20;;;23.50;44.70;;;;;;5027240;28;20523;-64
2023/06/04 09:20:03;;;;;;;1.23;1.02;;;23.60;44.80;;;;;;5034916;28;20026;-64
2023/06/04 09:22:33;;;;;;;1.48;0.98;;;23.60;44.80;;;;;;5036098;28;20018;-64
2023/06/04 09:24:58;;;;;;;1.55;1.08;;;23.60;44.80;;;;;;5038680;28;20459;-64
2023/06/04 09:27:25;;;;;;;1.55;1.00;;;23.50;45.30;;;;;;5037617;28;20028;-64
2023/06/04 09:29:56;;;;;;;1.40;1.10;;;23.60;44.80;;;;;;5037466;28;20785;-64
2023/06/04 09:32:28;;;;;;;1.77;1.20;;;23.60;44.80;;;;;;5033829;28;20488;-64
2023/06/04 09:34:57;;;;;;;1.33;1.00;;;23.60;44.80;;;;;;5034490;28;20556;-64
2023/06/04 09:37:23;;;;;;;1.38;0.95;;;23.50;44.80;;;;;;5036917;28;20068;-64
2023/06/04 09:39:57;;;;;;;1.05;0.95;;;23.50;44.80;;;;;;5033184;28;20550;-64
2023/06/04 09:42:23;;;;;;;1.35;1.10;;;23.60;45.30;;;;;;5036776;28;20163;-64
2023/06/04 09:44:49;;;;;;;1.25;1.00;;;23.60;44.80;;;;;;5036574;28;20036;-63
2023/06/04 09:47:15;;;;;;;1.38;1.02;;;23.60;44.80;;;;;;5033091;28;20032;-64
2023/06/04 09:49:50;;;;;;;1.42;1.02;;;23.60;44.80;;;;;;5018634;28;20025;-64
2023/06/04 09:52:16;;;;;;;1.40;1.00;;;23.60;44.80;;;;;;5031742;28;20070;-64
2023/06/04 09:54:43;;;;;;;1.40;1.08;;;23.60;44.80;;;;;;5017625;28;20512;-64
2023/06/04 09:57:17;;;;;;;1.67;1.10;;;23.50;44.80;;;;;;5035224;28;20480;-64
2023/06/04 09:59:49;;;;;;;1.80;1.00;;;23.60;44.90;;;;;;5015937;28;20373;-63
2023/06/04 10:02:20;;;;;;;1.80;1.08;;;23.60;44.80;;;;;;5035774;28;20557;-64
2023/06/04 10:04:54;;;;;;;1.35;1.00;;;23.60;44.80;;;;;;5036129;28;20120;-64
2023/06/04 10:07:20;;;;;;;1.08;0.90;;;23.60;44.80;;;;;;5033756;28;20030;-64
2023/06/04 10:09:49;;;;;;;1.58;1.00;;;23.60;44.80;;;;;;5034149;28;20030;-64
2023/06/04 10:12:16;;;;;;;1.60;0.98;;;23.50;44.80;;;;;;5031831;28;20029;-63
2023/06/04 10:14:52;;;;;;;1.10;0.93;;;23.60;44.80;;;;;;5033890;28;20393;-64
2023/06/04 10:17:21;;;;;;;1.40;1.02;;;23.60;44.80;;;;;;5034590;28;20029;-64
2023/06/04 10:19:51;;;;;;;1.45;1.10;;;23.60;44.80;;;;;;5035708;28;20088;-64
2023/06/04 10:22:17;;;;;;;1.80;1.10;;;23.60;44.90;;;;;;5034988;28;20045;-64
2023/06/04 10:24:44;;;;;;;1.10;0.90;;;23.60;44.80;;;;;;5031034;28;20481;-63
2023/06/04 10:27:12;;;;;;;1.02;0.90;;;23.60;44.80;;;;;;5034007;28;20152;-64
2023/06/04 10:29:42;;;;;;;1.15;0.93;;;23.60;44.80;;;;;;5012405;28;20508;-64
2023/06/04 10:32:07;;;;;;;1.23;0.95;;;23.60;44.80;;;;;;5034329;28;20504;-64
2023/06/04 10:34:34;;;;;;;1.33;1.02;;;23.60;44.80;;;;;;5019053;28;20022;-64
2023/06/04 10:37:00;;;;;;;1.40;1.10;;;23.60;44.80;;;;;;5034397;28;20021;-64
2023/06/04 10:39:27;;;;;;;1.30;1.00;;;23.60;44.80;;;;;;5034942;28;20021;-64
2023/06/04 10:42:00;;;;;;;1.20;1.00;;;23.60;44.80;;;;;;5036589;28;20493;-64
2023/06/04 10:44:25;;;;;;;1.58;1.10;;;23.60;44.80;;;;;;5035232;28;20026;-64
2023/06/04 10:46:51;;;;;;;1.58;1.02;;;23.60;44.80;;;;;;5033159;28;20410;-64
2023/06/04 10:49:31;;;;;;;1.33;0.98;;;23.60;44.80;;;;;;5033492;28;20018;-64
2023/06/04 10:52:02;;;;;;;1.10;0.90;;;23.60;44.80;;;;;;5036405;28;20017;-64
2023/06/04 10:54:29;;;;;;;1.50;1.00;;;23.60;44.80;;;;;;5031840;28;20489;-63
2023/06/04 10:56:55;;;;;;;1.17;0.93;;;23.60;44.70;;;;;;5034623;28;20540;-64
2023/06/04 10:59:21;;;;;;;1.70;1.20;;;23.60;44.70;;;;;;5032239;28;20026;-64
2023/06/04 11:01:47;;;;;;;1.70;1.00;;;23.60;44.70;;;;;;5015966;28;20471;-64
2023/06/04 11:04:25;;;;;;;1.30;1.00;;;23.60;44.70;;;;;;5029958;28;20033;-64
2023/06/04 11:07:08;;;;;;;1.50;1.08;;;23.60;44.70;;;;;;5017562;28;20040;-64
2023/06/04 11:09:47;;;;;;;1.48;1.00;;;23.60;45.30;;;;;;5032520;28;20496;-64
2023/06/04 11:12:12;;;;;;;1.00;0.90;;;23.60;44.80;;;;;;5032980;28;20029;-64
2023/06/04 11:14:39;;;;;;;1.60;1.00;;;23.60;44.80;;;;;;5016601;28;20026;-64
2023/06/04 11:17:12;;;;;;;1.00;0.90;;;23.60;44.80;;;;;;5034462;28;20388;-64
2023/06/04 11:19:38;;;;;;;1.40;0.90;;;23.60;44.80;;;;;;5037903;28;20037;-64
2023/06/04 11:22:05;;;;;;;1.83;1.10;;;23.60;44.90;;;;;;5036293;28;20025;-64
2023/06/04 11:24:32;;;;;;;1.40;0.90;;;23.60;44.90;;;;;;5033592;28;20033;-64
2023/06/04 11:26:59;;;;;;;1.40;0.95;;;23.60;44.90;;;;;;5036980;28;20040;-64
2023/06/04 11:29:25;;;;;;;1.02;0.90;;;23.60;44.90;;;;;;5031960;28;20108;-64
2023/06/04 11:31:50;;;;;;;1.95;1.00;;;23.60;45.00;;;;;;5032492;28;20156;-63
2023/06/04 11:34:27;;;;;;;1.55;1.00;;;23.60;45.00;;;;;;5034799;28;20053;-64
2023/06/04 11:36:53;;;;;;;1.40;1.00;;;23.60;45.00;;;;;;5016308;28;20029;-64
2023/06/04 11:39:20;;;;;;;1.17;0.90;;;23.70;45.00;;;;;;5034254;28;20083;-64
2023/06/04 11:41:46;;;;;;;1.08;0.90;;;23.60;45.00;;;;;;5016983;28;20029;-65
2023/06/04 11:44:12;;;;;;;1.08;0.80;;;23.60;45.00;;;;;;5033935;28;20520;-64
2023/06/04 11:46:44;;;;;;;1.00;0.80;;;23.60;45.00;;;;;;5032519;28;20104;-64
2023/06/04 11:49:16;;;;;;;1.20;0.95;;;23.60;45.00;;;;;;5033731;28;20116;-64
2023/06/04 11:51:49;;;;;;;1.25;0.90;;;23.60;45.00;;;;;;5035462;28;20150;-64
2023/06/04 11:54:18;;;;;;;1.25;0.95;;;23.60;45.00;;;;;;5034556;28;20026;-64
2023/06/04 11:56:44;;;;;;;;;;;23.70;45.10;;;;;;5032362;28;20170;-64
2023/06/04 11:59:13;;;;;;;1.45;0.90;;;23.70;45.10;;;;;;5036650;28;19916;-64
2023/06/04 12:01:43;;;;;;;;;;;23.60;45.00;;;;;;5019487;28;20052;-64
2023/06/04 12:04:16;;;;;;;;;;;23.60;45.10;;;;;;5033619;28;19920;-66
2023/06/04 12:06:59;;;;;;;1.27;0.90;;;23.60;45.10;;;;;;5035429;28;20087;-64
2023/06/04 12:09:37;;;;;;;1.40;1.00;;;23.70;45.10;;;;;;5036366;28;20030;-64
2023/06/04 12:12:05;;;;;;;1.80;1.10;;;23.70;45.10;;;;;;5036906;28;20468;-64
2023/06/04 12:14:31;;;;;;;1.35;1.00;;;23.70;45.10;;;;;;5038542;28;20028;-65
2023/06/04 12:17:05;;;;;;;1.10;0.90;;;23.70;45.10;;;;;;5033283;28;20523;-65
2023/06/04 12:19:31;;;;;;;1.50;1.00;;;23.70;45.10;;;;;;5037876;28;20425;-65
2023/06/04 12:22:05;;;;;;;1.42;1.10;;;23.70;45.40;;;;;;5022826;28;20083;-65
2023/06/04 12:24:47;;;;;;;2.33;1.10;;;23.70;45.10;;;;;;5006008;28;20088;-65
2023/06/04 12:27:13;;;;;;;1.63;1.08;;;23.70;45.20;;;;;;5038882;28;20108;-65
2023/06/04 12:29:39;;;;;;;2.30;1.17;;;23.70;45.20;;;;;;5038332;28;20033;-65
2023/06/04 12:32:11;;;;;;;1.63;1.10;;;23.70;45.20;;;;;;5021025;28;20022;-65
2023/06/04 12:34:37;;;;;;;1.63;1.10;;;23.70;45.20;;;;;;5038109;28;20067;-65
2023/06/04 12:37:05;;;;;;;1.25;1.00;;;23.70;45.20;;;;;;5039392;28;20028;-65
2023/06/04 12:39:36;;;;;;;1.30;0.90;;;23.70;45.20;;;;;;5037510;28;20602;-65
2023/06/04 12:42:05;;;;;;;1.30;0.95;;;23.70;45.20;;;;;;5018699;28;20128;-65
2023/06/04 12:44:31;;;;;;;1.30;0.80;;;23.70;45.30;;;;;;5020210;28;20092;-65
2023/06/04 12:46:56;;;;;;;1.77;1.10;;;23.70;45.20;;;;;;5040494;28;20028;-65
2023/06/04 12:49:22;;;;;;;1.20;1.00;;;23.70;45.70;;;;;;5032166;28;20029;-65